createdAt,value
2017-02-27T00:01:33.922Z,1000.7
2017-02-27T00:11:48.133Z,1000.6
2017-02-27T00:22:02.894Z,1000.6
2017-02-27T00:32:17.192Z,1000.4
2017-02-27T00:42:31.091Z,1000.5
2017-02-27T00:52:44.840Z,1000.5
2017-02-27T01:02:58.664Z,1000.4
2017-02-27T01:13:13.185Z,1000.3
2017-02-27T01:23:27.368Z,1000.2
2017-02-27T01:33:41.479Z,1000.1
2017-02-27T01:54:07.757Z,999.9
2017-02-27T02:04:21.629Z,999.6
2017-02-27T02:14:35.968Z,999.6
2017-02-27T02:24:49.049Z,999.5
2017-02-27T02:35:04.037Z,999.4
2017-02-27T02:45:18.064Z,999.3
2017-02-27T02:55:32.838Z,999.1
2017-02-27T03:05:47.881Z,999
2017-02-27T03:16:01.633Z,998.8
2017-02-27T03:26:15.996Z,998.6
2017-02-27T03:36:30.741Z,998.5
2017-02-27T03:46:45.761Z,998.4
2017-02-27T03:56:59.398Z,998.3
2017-02-27T04:07:13.476Z,998.2
2017-02-27T04:17:26.640Z,998.1
2017-02-27T04:27:41.745Z,998.1
2017-02-27T04:37:55.000Z,998
2017-02-27T04:48:09.635Z,997.9
2017-02-27T04:58:24.692Z,997.8
2017-02-27T05:08:38.825Z,997.6
2017-02-27T05:18:53.346Z,997.5
2017-02-27T05:29:08.161Z,997.4
2017-02-27T05:39:21.373Z,997.2
2017-02-27T05:49:35.918Z,997.1
2017-02-27T05:59:49.265Z,996.9
2017-02-27T06:10:03.393Z,996.8
2017-02-27T06:20:17.044Z,996.8
2017-02-27T06:30:30.759Z,996.8
2017-02-27T06:40:44.969Z,996.7
2017-02-27T06:50:59.921Z,996.7
2017-02-27T07:01:13.909Z,996.6
2017-02-27T07:11:27.127Z,996.4
2017-02-27T07:21:42.012Z,996.3
2017-02-27T07:31:56.504Z,996.1
2017-02-27T07:42:10.275Z,996.1
2017-02-27T07:52:23.359Z,996
2017-02-27T08:02:38.530Z,995.7
2017-02-27T08:12:51.874Z,995.8
2017-02-27T08:23:06.790Z,995.6
2017-02-27T08:33:20.423Z,995.5
2017-02-27T08:43:34.172Z,995.3
2017-02-27T08:53:48.993Z,995.1
2017-02-27T09:04:03.178Z,995.1
2017-02-27T09:14:17.046Z,994.8
2017-02-27T09:24:32.064Z,994.8
2017-02-27T09:34:46.223Z,994.7
2017-02-27T09:44:59.435Z,994.5
2017-02-27T09:55:14.178Z,994.3
2017-02-27T10:05:28.969Z,994.1
2017-02-27T10:15:43.400Z,993.9
2017-02-27T10:25:57.457Z,993.9
2017-02-27T10:36:12.381Z,993.6
2017-02-27T10:46:26.350Z,993.4
2017-02-27T10:56:40.706Z,993.2
2017-02-27T11:06:55.875Z,993.1
2017-02-27T11:17:09.487Z,992.9
2017-02-27T11:27:23.926Z,992.5
2017-02-27T11:37:37.458Z,992.4
2017-02-27T11:47:51.728Z,992.2
2017-02-27T11:58:06.314Z,991.8
2017-02-27T12:08:19.592Z,991.8
2017-02-27T12:18:33.980Z,991.4
2017-02-27T12:28:47.455Z,991.1
2017-02-27T12:39:01.307Z,991
2017-02-27T12:49:14.484Z,990.8
2017-02-27T12:59:27.964Z,990.4
2017-02-27T13:09:41.541Z,990.2
2017-02-27T13:19:55.377Z,989.9
2017-02-27T13:30:10.493Z,989.7
2017-02-27T13:40:24.190Z,989.5
2017-02-27T13:50:38.416Z,989.5
2017-02-27T14:00:51.766Z,989.1
2017-02-27T14:11:05.241Z,989
2017-02-27T14:21:20.580Z,988.8
2017-02-27T14:31:35.042Z,988.4
2017-02-27T14:41:48.742Z,988.2
2017-02-27T14:52:02.770Z,987.8
2017-02-27T15:02:17.110Z,987.6
2017-02-27T15:12:31.120Z,987.3
2017-02-27T15:22:45.033Z,987.1
2017-02-27T15:33:00.073Z,986.8
2017-02-27T15:43:14.049Z,986.3
2017-02-27T15:53:28.399Z,986
2017-02-27T16:03:42.233Z,985.9
2017-02-27T16:13:56.280Z,985.5
2017-02-27T16:24:10.728Z,985.3
2017-02-27T16:34:24.032Z,985.1
2017-02-27T16:44:37.465Z,985
2017-02-27T16:54:51.094Z,984.6
2017-02-27T17:05:04.112Z,984.5
2017-02-27T17:15:17.889Z,984.3
2017-02-27T17:25:31.840Z,984.4
2017-02-27T17:35:46.627Z,984.5
2017-02-27T17:46:01.444Z,984.6
2017-02-27T17:56:14.491Z,984.8
2017-02-27T18:16:42.542Z,985.3
2017-02-27T18:26:55.626Z,985.5
2017-02-27T18:37:09.974Z,985.4
2017-02-27T18:47:23.809Z,984.2
2017-02-27T19:07:50.668Z,984.2
2017-02-27T19:18:05.111Z,983.8
2017-02-27T19:28:18.671Z,983.6
2017-02-27T19:38:31.973Z,983.2
2017-02-27T19:48:46.656Z,983.3
2017-02-27T19:59:01.710Z,983.6
2017-02-27T20:09:15.266Z,983.5
2017-02-27T20:19:29.207Z,983.3
2017-02-27T20:29:43.076Z,982.6
2017-02-27T20:39:57.313Z,983
2017-02-27T20:50:12.097Z,983
2017-02-27T21:00:25.658Z,982.9
2017-02-27T21:10:40.370Z,982.5
2017-02-27T21:20:54.207Z,983
2017-02-27T21:31:08.922Z,982.6
2017-02-27T21:41:22.988Z,982.7
2017-02-27T21:51:36.654Z,982.8
2017-02-27T22:01:51.840Z,982.8
2017-02-27T22:12:05.218Z,982.7
2017-02-27T22:22:18.639Z,982.9
2017-02-27T22:32:33.019Z,982.7
2017-02-27T22:42:47.924Z,983
2017-02-27T22:53:02.933Z,982.7
2017-02-27T23:03:16.812Z,982.6
2017-02-27T23:13:30.668Z,982.2
2017-02-27T23:23:44.711Z,981.8
2017-02-27T23:33:59.608Z,981.9
2017-02-27T23:44:13.534Z,982.2
2017-02-27T23:54:27.502Z,982.4
